RVD weather

Rivadavia Airport
Rivadavia, Mendoza Province, Argentina

Public forecast

Using degrees Celsius for public forecast. Weather courtesy of forecast.io.

METAR (pilot weather report)

Closest report is El Plumerillo Airport, 28.7 nm (53.1 km) NW. Retrieved 2019/09/22 12:00 UTC (58 minutes ago):

SAME 221200Z 14005KT CAVOK 14/M07 Q1024

TAF (pilot weather forecast)

Closest forecast is El Plumerillo Airport, 28.7 nm (53.1 km) NW. Retrieved 2019/09/22 12:00 UTC (58 minutes ago):

TAF SAME 221100Z 2212/2312 14005KT 9999 FEW040 TX25/2220Z TN05/2210Z BECMG 2215/2217 05005KT FEW040